Time;durP1;ratioP1;P1;durP2;ratioP2;P2;SDS_P1;SDS_P2;PMS_P1;PMS_P2;Temp;Humidity;BMP_temperature;BMP_pressure;BME280_temperature;BME280_humidity;BME280_pressure;Samples;Min_cycle;Max_cycle;Signal;HPM_P1;HPM_P2
2021/01/13 00:01:38;;;;;;;10.23;2.25;;;1.50;99.90;;;;;;5095174;28;20016;-83
2021/01/13 00:04:04;;;;;;;9.20;2.88;;;1.40;99.90;;;;;;5095197;28;20028;-83
2021/01/13 00:06:30;;;;;;;10.70;1.92;;;1.40;99.90;;;;;;5080173;28;20044;-83
2021/01/13 00:08:56;;;;;;;13.10;2.08;;;1.50;99.90;;;;;;5074873;28;20494;-84
2021/01/13 00:11:21;;;;;;;7.38;2.03;;;1.40;99.90;;;;;;5074565;28;20403;-84
2021/01/13 00:13:47;;;;;;;7.32;2.22;;;1.50;99.90;;;;;;5074767;28;20055;-84
2021/01/13 00:16:14;;;;;;;9.40;2.33;;;1.50;99.90;;;;;;5074577;28;20024;-84
2021/01/13 00:18:40;;;;;;;11.38;2.13;;;1.50;99.90;;;;;;5074417;28;20024;-83
2021/01/13 00:21:11;;;;;;;10.50;2.13;;;1.40;99.90;;;;;;5074580;28;20032;-84
2021/01/13 00:23:37;;;;;;;7.22;2.72;;;1.40;99.90;;;;;;5074768;28;20074;-83
2021/01/13 00:26:02;;;;;;;10.20;2.20;;;1.40;99.90;;;;;;5075711;28;20025;-84
2021/01/13 00:28:28;;;;;;;10.00;2.13;;;1.40;99.90;;;;;;5074590;28;20074;-84
2021/01/13 00:30:53;;;;;;;8.75;1.92;;;1.50;99.90;;;;;;5075480;28;20078;-84
2021/01/13 00:33:19;;;;;;;11.50;2.25;;;1.50;99.90;;;;;;5074381;28;20024;-84
2021/01/13 00:35:44;;;;;;;8.35;1.85;;;1.50;99.90;;;;;;5074408;28;20476;-84
2021/01/13 00:38:11;;;;;;;14.20;2.90;;;1.50;99.90;;;;;;5074229;28;20124;-84
2021/01/13 00:40:37;;;;;;;9.18;2.08;;;1.40;99.90;;;;;;5075557;28;20016;-84
2021/01/13 00:43:03;;;;;;;8.75;1.80;;;1.40;99.90;;;;;;5074116;28;20047;-84
2021/01/13 00:45:29;;;;;;;7.78;2.40;;;1.40;99.90;;;;;;5074147;28;20081;-84
2021/01/13 00:47:56;;;;;;;11.23;2.55;;;1.40;99.90;;;;;;5075286;28;20067;-84
2021/01/13 00:50:22;;;;;;;10.75;2.72;;;1.30;99.90;;;;;;5074201;28;20056;-84
2021/01/13 00:52:50;;;;;;;8.57;2.38;;;1.30;99.90;;;;;;5074025;28;20380;-84
2021/01/13 00:55:16;;;;;;;14.52;2.92;;;1.30;99.90;;;;;;5073899;28;20044;-84
2021/01/13 00:57:45;;;;;;;12.00;2.30;;;1.30;99.90;;;;;;5073931;28;20074;-84
2021/01/13 01:00:11;;;;;;;5.57;1.73;;;1.30;99.90;;;;;;5073933;28;20027;-84
2021/01/13 01:02:37;;;;;;;12.20;2.22;;;1.30;99.90;;;;;;5073766;28;20379;-84
2021/01/13 01:05:03;;;;;;;8.90;2.72;;;1.30;99.90;;;;;;5077805;28;20020;-84
2021/01/13 01:07:28;;;;;;;8.57;2.30;;;1.30;99.90;;;;;;5094005;28;20024;-84
2021/01/13 01:09:54;;;;;;;8.85;2.70;;;1.30;99.90;;;;;;5093270;28;20031;-84
2021/01/13 01:12:20;;;;;;;12.48;2.95;;;1.30;99.90;;;;;;5093918;28;20539;-84
2021/01/13 01:14:45;;;;;;;9.75;2.55;;;1.40;99.90;;;;;;5093833;28;20381;-84
2021/01/13 01:17:11;;;;;;;14.85;2.90;;;1.40;99.90;;;;;;5093625;28;20020;-84
2021/01/13 01:19:38;;;;;;;11.00;2.40;;;1.40;99.90;;;;;;5093851;28;20112;-84
2021/01/13 01:22:04;;;;;;;8.95;2.47;;;1.40;99.90;;;;;;5093774;28;20028;-84
2021/01/13 01:24:30;;;;;;;12.75;3.55;;;1.50;99.90;;;;;;5093886;28;20020;-85
2021/01/13 01:26:55;;;;;;;12.55;2.25;;;1.50;99.90;;;;;;5093551;28;20028;-84
2021/01/13 01:29:21;;;;;;;8.85;2.20;;;1.50;99.90;;;;;;5093741;28;20035;-84
2021/01/13 01:31:51;;;;;;;9.55;2.13;;;1.60;99.90;;;;;;5094705;28;20032;-84
2021/01/13 01:34:17;;;;;;;9.13;2.73;;;1.60;99.90;;;;;;5093659;28;20073;-84
2021/01/13 01:36:42;;;;;;;9.43;2.33;;;1.60;99.90;;;;;;5093633;28;20094;-84
2021/01/13 01:39:08;;;;;;;14.27;2.13;;;1.60;99.90;;;;;;5093461;28;20102;-85
2021/01/13 01:41:34;;;;;;;11.88;2.30;;;1.60;99.90;;;;;;5093840;28;20101;-85
2021/01/13 01:43:59;;;;;;;20.33;3.40;;;1.60;99.90;;;;;;5093297;28;20115;-84
2021/01/13 01:46:25;;;;;;;9.40;2.10;;;1.70;99.90;;;;;;5093133;28;20024;-84
2021/01/13 01:48:56;;;;;;;13.07;2.25;;;1.70;99.90;;;;;;5093180;28;20031;-84
2021/01/13 01:51:27;;;;;;;7.45;1.73;;;1.70;99.90;;;;;;5093349;28;20024;-84
2021/01/13 01:54:10;;;;;;;5.65;1.48;;;1.60;99.90;;;;;;5094472;28;20103;-84
2021/01/13 01:56:40;;;;;;;9.40;1.98;;;1.60;99.90;;;;;;5092838;28;20048;-84
2021/01/13 01:59:11;;;;;;;6.80;1.85;;;1.50;99.90;;;;;;5093005;28;20066;-85
2021/01/13 02:01:44;;;;;;;8.57;2.47;;;1.50;99.90;;;;;;5092981;28;20016;-84
2021/01/13 02:04:25;;;;;;;8.32;2.58;;;1.50;99.90;;;;;;5093069;28;20468;-84
2021/01/13 02:07:09;;;;;;;8.45;1.80;;;1.60;99.90;;;;;;5075175;28;20020;-84
2021/01/13 02:09:36;;;;;;;15.05;4.32;;;1.50;99.90;;;;;;5073970;28;20024;-84
2021/01/13 02:12:12;;;;;;;8.60;3.63;;;1.50;99.90;;;;;;5072469;28;20098;-85
2021/01/13 02:14:41;;;;;;;7.50;2.88;;;1.50;99.90;;;;;;5072590;28;20021;-85
2021/01/13 02:17:08;;;;;;;9.70;2.85;;;1.50;99.90;;;;;;5073681;28;20028;-85
2021/01/13 02:19:46;;;;;;;15.10;4.13;;;1.50;99.90;;;;;;5073484;28;20115;-84
2021/01/13 02:22:14;;;;;;;12.60;3.15;;;1.60;99.90;;;;;;5071392;28;20025;-85
2021/01/13 02:25:01;;;;;;;11.65;3.50;;;1.60;99.90;;;;;;5072441;28;20028;-85
2021/01/13 02:27:42;;;;;;;5.95;3.38;;;1.60;99.90;;;;;;5072316;28;20028;-85
2021/01/13 02:30:11;;;;;;;8.88;3.47;;;1.60;99.90;;;;;;5072154;28;20020;-85
2021/01/13 02:32:43;;;;;;;8.27;4.33;;;1.60;99.90;;;;;;5071988;28;20021;-85
2021/01/13 02:35:22;;;;;;;14.93;3.58;;;1.60;99.90;;;;;;5072364;28;20067;-85
2021/01/13 02:38:08;;;;;;;5.85;2.50;;;1.60;99.90;;;;;;5072277;28;20017;-85
2021/01/13 02:40:36;;;;;;;9.80;2.83;;;1.60;99.90;;;;;;5072193;28;20047;-85
2021/01/13 02:43:08;;;;;;;12.77;3.22;;;1.60;99.90;;;;;;5072017;28;20024;-86
2021/01/13 02:45:35;;;;;;;12.65;3.28;;;1.70;99.90;;;;;;5072204;28;20020;-85
2021/01/13 02:48:23;;;;;;;14.82;3.85;;;1.70;99.90;;;;;;5073182;28;20024;-86
2021/01/13 02:50:55;;;;;;;13.65;3.28;;;1.80;99.90;;;;;;5073302;28;20028;-85
2021/01/13 02:53:20;;;;;;;14.00;2.47;;;1.90;99.90;;;;;;5072082;28;20074;-85
2021/01/13 02:55:46;;;;;;;10.98;3.00;;;2.00;99.90;;;;;;5071771;28;20049;-85
2021/01/13 02:58:12;;;;;;;9.50;3.30;;;2.00;99.90;;;;;;5071972;28;20115;-86
2021/01/13 03:00:38;;;;;;;11.95;3.10;;;2.00;99.90;;;;;;5071955;28;20056;-86
2021/01/13 03:03:04;;;;;;;15.65;3.67;;;2.00;99.90;;;;;;5073124;28;20567;-86
2021/01/13 03:05:30;;;;;;;15.77;3.75;;;1.90;99.90;;;;;;5078188;28;20032;-86
2021/01/13 03:07:57;;;;;;;10.10;3.40;;;1.90;99.90;;;;;;5092063;28;20024;-86
2021/01/13 03:10:26;;;;;;;11.23;3.33;;;1.90;99.90;;;;;;5092066;28;20535;-86
2021/01/13 03:13:02;;;;;;;12.77;2.75;;;1.80;99.90;;;;;;5092108;28;20024;-86
2021/01/13 03:15:30;;;;;;;13.27;3.25;;;1.80;99.90;;;;;;5092110;28;20030;-86
2021/01/13 03:18:13;;;;;;;7.68;2.92;;;1.70;99.90;;;;;;5093074;28;20023;-85
2021/01/13 03:20:54;;;;;;;14.55;2.65;;;1.70;99.90;;;;;;5091751;28;20031;-85
2021/01/13 03:23:28;;;;;;;11.75;3.00;;;1.70;99.90;;;;;;5091920;28;20031;-86
2021/01/13 03:25:59;;;;;;;8.68;2.60;;;1.70;99.90;;;;;;5092088;28;20495;-86
2021/01/13 03:28:28;;;;;;;11.73;2.42;;;1.70;99.90;;;;;;5093110;28;20071;-86
2021/01/13 03:30:54;;;;;;;14.85;1.92;;;1.70;99.90;;;;;;5091855;28;20028;-86
2021/01/13 03:33:26;;;;;;;10.88;2.70;;;1.70;99.90;;;;;;5093861;28;20028;-85
2021/01/13 03:36:02;;;;;;;12.45;2.15;;;1.80;99.90;;;;;;5097135;28;20031;-85
2021/01/13 03:38:29;;;;;;;14.02;2.45;;;1.80;99.90;;;;;;5096065;28;20024;-85
2021/01/13 03:41:05;;;;;;;11.57;1.75;;;1.90;99.90;;;;;;5096225;28;20028;-85
2021/01/13 03:43:39;;;;;;;6.68;1.98;;;2.00;99.90;;;;;;5095934;28;20051;-85
2021/01/13 03:46:09;;;;;;;12.68;1.88;;;2.10;99.90;;;;;;5095872;28;20028;-85
2021/01/13 03:48:51;;;;;;;11.88;1.50;;;2.10;99.90;;;;;;5097096;28;20031;-84
2021/01/13 03:51:25;;;;;;;8.68;1.23;;;2.10;99.90;;;;;;5095414;28;20031;-84
2021/01/13 03:53:52;;;;;;;8.18;1.55;;;2.10;99.90;;;;;;5095585;28;20422;-84
2021/01/13 03:56:28;;;;;;;12.15;1.65;;;2.10;99.90;;;;;;5095362;28;20040;-84
2021/01/13 03:58:54;;;;;;;11.65;3.30;;;2.20;99.90;;;;;;5095281;28;20444;-84
2021/01/13 04:01:23;;;;;;;11.38;1.30;;;2.20;99.90;;;;;;5095415;28;20026;-84
2021/01/13 04:04:22;;;;;;;5.10;0.85;;;2.20;99.90;;;;;;5095152;28;20039;-84
2021/01/13 04:06:59;;;;;;;8.68;1.40;;;2.30;99.90;;;;;;5079265;28;20487;-84
2021/01/13 04:09:25;;;;;;;12.48;1.17;;;2.20;99.90;;;;;;5074800;28;20115;-84
2021/01/13 04:12:11;;;;;;;6.85;1.15;;;2.30;99.90;;;;;;5076174;28;20021;-84
2021/01/13 04:14:47;;;;;;;13.40;0.82;;;2.40;99.90;;;;;;5074806;28;20405;-84
2021/01/13 04:17:14;;;;;;;5.28;0.73;;;2.40;99.90;;;;;;5074775;28;20036;-84
2021/01/13 04:19:45;;;;;;;6.55;1.35;;;2.50;99.90;;;;;;5075671;28;20465;-83
2021/01/13 04:22:15;;;;;;;13.48;1.02;;;2.60;99.90;;;;;;5074615;28;20434;-83
2021/01/13 04:24:41;;;;;;;;;;;2.70;99.90;;;;;;5076133;28;20082;-83
2021/01/13 04:27:08;;;;;;;9.73;1.77;;;2.70;99.90;;;;;;5074652;28;20462;-83
2021/01/13 04:29:33;;;;;;;5.07;0.98;;;2.70;99.90;;;;;;5074405;28;20024;-83
2021/01/13 04:31:59;;;;;;;9.95;1.02;;;2.70;99.90;;;;;;5075877;28;20047;-84
2021/01/13 04:34:25;;;;;;;11.68;1.50;;;2.70;99.90;;;;;;5074356;28;20368;-83
2021/01/13 04:36:51;;;;;;;9.45;1.67;;;2.70;99.90;;;;;;5074361;28;20031;-83
2021/01/13 04:39:19;;;;;;;6.45;1.25;;;2.70;99.90;;;;;;5075429;28;20067;-82
2021/01/13 04:42:08;;;;;;;12.10;2.83;;;2.70;99.90;;;;;;5075647;28;20066;-82
2021/01/13 04:44:54;;;;;;;7.88;1.83;;;2.80;99.90;;;;;;5074294;28;20463;-83
2021/01/13 04:47:39;;;;;;;12.23;2.05;;;2.80;99.90;;;;;;5075488;28;20053;-83
2021/01/13 04:50:09;;;;;;;13.98;2.20;;;2.70;99.90;;;;;;5074325;28;20369;-82
2021/01/13 04:52:40;;;;;;;10.77;1.98;;;2.70;99.90;;;;;;5074052;28;20499;-82
2021/01/13 04:55:12;;;;;;;11.07;2.53;;;2.70;99.90;;;;;;5073838;28;20048;-82
2021/01/13 04:57:59;;;;;;;14.02;2.60;;;2.70;99.90;;;;;;5074014;28;20071;-82
2021/01/13 05:00:56;;;;;;;11.48;2.05;;;2.70;99.90;;;;;;5076439;28;20028;-82
2021/01/13 05:03:40;;;;;;;10.95;2.95;;;2.60;99.90;;;;;;5093710;28;20043;-82
2021/01/13 05:06:41;;;;;;;16.80;3.08;;;2.60;99.90;;;;;;5080947;28;20047;-82
2021/01/13 05:09:09;;;;;;;8.27;2.53;;;2.50;99.90;;;;;;5067876;28;20086;-82
2021/01/13 05:11:45;;;;;;;10.45;2.35;;;2.40;99.90;;;;;;5073900;28;20119;-81
2021/01/13 05:14:12;;;;;;;15.18;2.60;;;2.40;99.90;;;;;;5073670;28;20031;-82
2021/01/13 05:17:01;;;;;;;17.42;3.70;;;2.30;99.90;;;;;;5074770;28;20025;-82
2021/01/13 05:19:29;;;;;;;21.97;3.80;;;2.40;99.90;;;;;;5073463;28;20032;-82
2021/01/13 05:21:57;;;;;;;13.88;2.40;;;2.30;99.90;;;;;;5074734;28;20025;-82
2021/01/13 05:24:23;;;;;;;20.08;3.72;;;2.30;99.90;;;;;;5073398;28;20020;-82
2021/01/13 05:27:02;;;;;;;11.77;2.60;;;2.30;99.90;;;;;;5073497;28;20116;-82
2021/01/13 05:29:34;;;;;;;10.75;3.10;;;2.30;99.90;;;;;;5073323;28;20028;-82
2021/01/13 05:32:00;;;;;;;22.77;3.10;;;2.30;99.90;;;;;;5073337;28;20115;-82
2021/01/13 05:34:31;;;;;;;12.75;2.70;;;2.30;99.90;;;;;;5073134;28;20028;-82
2021/01/13 05:37:13;;;;;;;;;;;2.30;99.90;;;;;;5073660;28;20510;-82
2021/01/13 05:39:40;;;;;;;13.10;2.67;;;2.20;99.90;;;;;;5072991;28;19908;-82
2021/01/13 05:42:06;;;;;;;23.70;2.80;;;2.20;99.90;;;;;;5074424;28;20472;-82
2021/01/13 05:44:32;;;;;;;13.30;2.67;;;2.20;99.90;;;;;;5074191;28;20029;-82
2021/01/13 05:47:05;;;;;;;13.55;2.80;;;2.20;99.90;;;;;;5073104;28;20536;-83
2021/01/13 05:49:31;;;;;;;10.07;2.35;;;2.20;99.90;;;;;;5074207;28;20146;-82
2021/01/13 05:52:06;;;;;;;14.23;3.20;;;2.20;99.90;;;;;;5074054;28;20025;-82
2021/01/13 05:54:37;;;;;;;10.88;2.10;;;2.20;99.90;;;;;;5072611;28;20111;-82
2021/01/13 05:57:04;;;;;;;8.60;2.00;;;2.20;99.90;;;;;;5072723;28;20028;-83
2021/01/13 05:59:30;;;;;;;19.35;2.70;;;2.20;99.90;;;;;;5073890;28;20037;-82
2021/01/13 06:02:02;;;;;;;17.73;2.88;;;2.20;99.90;;;;;;5072967;28;20055;-82
2021/01/13 06:04:29;;;;;;;10.88;2.35;;;2.20;99.90;;;;;;5072581;28;20384;-83
2021/01/13 06:07:16;;;;;;;13.23;2.10;;;2.20;99.90;;;;;;5090844;28;20020;-83
2021/01/13 06:09:43;;;;;;;17.75;2.40;;;2.30;99.90;;;;;;5085806;28;20057;-82
2021/01/13 06:12:19;;;;;;;21.55;2.60;;;2.30;99.90;;;;;;5083507;28;20395;-83
2021/01/13 06:14:51;;;;;;;13.98;2.40;;;2.30;99.90;;;;;;5084477;28;20518;-82
2021/01/13 06:17:18;;;;;;;15.07;1.70;;;2.30;99.90;;;;;;5082298;28;20546;-83
2021/01/13 06:19:48;;;;;;;11.65;1.58;;;2.30;99.90;;;;;;5081042;28;20024;-83
2021/01/13 06:22:14;;;;;;;13.43;1.73;;;2.30;99.90;;;;;;5087041;28;20518;-83
2021/01/13 06:24:40;;;;;;;17.55;2.70;;;2.30;99.90;;;;;;5085758;28;20035;-83
2021/01/13 06:27:44;;;;;;;15.80;2.80;;;2.30;99.90;;;;;;5090505;28;20020;-83
2021/01/13 06:30:18;;;;;;;19.90;2.50;;;2.30;99.90;;;;;;5043600;28;20074;-83
2021/01/13 06:32:53;;;;;;;11.32;2.28;;;2.30;99.90;;;;;;5089038;28;20024;-83
2021/01/13 06:35:31;;;;;;;17.65;2.10;;;2.30;99.90;;;;;;5089089;28;20529;-83
2021/01/13 06:37:59;;;;;;;9.48;2.30;;;2.30;99.90;;;;;;5085673;28;20471;-84
2021/01/13 06:40:24;;;;;;;12.35;2.38;;;2.30;99.90;;;;;;5091497;28;20038;-83
2021/01/13 06:42:50;;;;;;;14.25;1.92;;;2.30;99.90;;;;;;5085570;28;20468;-83
2021/01/13 06:45:31;;;;;;;12.13;2.10;;;2.30;99.90;;;;;;5088665;28;20024;-83
2021/01/13 06:47:58;;;;;;;10.82;2.13;;;2.30;99.90;;;;;;5089268;28;20106;-83
2021/01/13 06:50:30;;;;;;;11.95;1.55;;;2.30;99.90;;;;;;5090480;28;20022;-83
2021/01/13 06:52:57;;;;;;;12.93;2.30;;;2.30;99.90;;;;;;5084765;28;20016;-83
2021/01/13 06:55:31;;;;;;;12.25;1.50;;;2.30;99.90;;;;;;5091347;28;20491;-83
2021/01/13 06:58:07;;;;;;;9.10;1.48;;;2.30;99.90;;;;;;5085694;28;20027;-83
2021/01/13 07:00:32;;;;;;;13.55;1.67;;;2.30;99.90;;;;;;5087399;28;20119;-83
2021/01/13 07:03:30;;;;;;;10.35;1.80;;;2.30;99.90;;;;;;5085438;28;20058;-84
2021/01/13 07:05:56;;;;;;;16.23;2.28;;;2.30;99.90;;;;;;5090162;28;20021;-84
2021/01/13 07:08:22;;;;;;;8.93;1.33;;;2.20;99.90;;;;;;5082210;28;20427;-83
2021/01/13 07:10:59;;;;;;;13.63;3.35;;;2.20;99.90;;;;;;5083023;28;20035;-84
2021/01/13 07:13:28;;;;;;;13.13;3.20;;;2.20;99.90;;;;;;5089938;28;20028;-84
2021/01/13 07:16:00;;;;;;;8.95;1.50;;;2.20;99.90;;;;;;5089185;28;20035;-83
2021/01/13 07:18:30;;;;;;;12.07;1.95;;;2.20;99.90;;;;;;5089982;28;20023;-84
2021/01/13 07:20:56;;;;;;;16.45;2.40;;;2.20;99.90;;;;;;5089501;28;20016;-83
2021/01/13 07:23:21;;;;;;;12.85;3.17;;;2.20;99.90;;;;;;5090967;28;20031;-84
2021/01/13 07:25:48;;;;;;;11.90;1.67;;;2.20;99.90;;;;;;5088660;28;20368;-84
2021/01/13 07:28:17;;;;;;;17.42;1.67;;;2.20;99.90;;;;;;5083400;28;20039;-84
2021/01/13 07:30:44;;;;;;;9.30;1.40;;;2.20;99.90;;;;;;5090579;28;20039;-84
2021/01/13 07:33:14;;;;;;;18.95;3.42;;;2.20;99.90;;;;;;5072409;28;20025;-84
2021/01/13 07:35:46;;;;;;;14.70;2.95;;;2.20;99.90;;;;;;5070778;28;20119;-84
2021/01/13 07:38:20;;;;;;;10.25;1.90;;;2.20;99.90;;;;;;5069460;28;20038;-84
2021/01/13 07:41:02;;;;;;;9.38;1.50;;;2.20;99.90;;;;;;5084771;28;20467;-84
2021/01/13 07:43:53;;;;;;;13.07;3.33;;;2.20;99.90;;;;;;5085494;28;20496;-84
2021/01/13 07:46:33;;;;;;;11.30;1.77;;;2.20;99.90;;;;;;5081254;28;20017;-84
2021/01/13 07:49:10;;;;;;;11.48;2.38;;;2.20;99.90;;;;;;5079485;28;20032;-84
2021/01/13 07:51:48;;;;;;;20.60;3.13;;;2.10;99.90;;;;;;5079933;28;20434;-84
2021/01/13 07:54:31;;;;;;;14.25;1.73;;;2.10;99.90;;;;;;5079990;28;20032;-84
2021/01/13 07:56:59;;;;;;;19.35;2.83;;;2.10;99.90;;;;;;5080041;28;20033;-84
2021/01/13 07:59:47;;;;;;;11.85;2.17;;;2.20;99.90;;;;;;5080552;28;20016;-84
2021/01/13 08:02:31;;;;;;;13.65;2.17;;;2.20;99.90;;;;;;5083011;28;20091;-84
2021/01/13 08:05:20;;;;;;;11.35;1.98;;;2.20;99.90;;;;;;5085878;28;20384;-84
2021/01/13 08:08:06;;;;;;;12.30;2.33;;;2.20;99.90;;;;;;5082579;28;20020;-84
2021/01/13 08:10:35;;;;;;;10.30;1.98;;;2.20;99.90;;;;;;5087873;28;20543;-85
2021/01/13 08:13:22;;;;;;;15.20;2.50;;;2.20;99.90;;;;;;5089125;28;20214;-85
2021/01/13 08:15:52;;;;;;;14.60;3.50;;;2.30;99.90;;;;;;5099329;28;20027;-85
2021/01/13 08:18:18;;;;;;;21.48;3.30;;;2.30;99.90;;;;;;5110083;28;20023;-84
2021/01/13 08:21:01;;;;;;;13.23;3.78;;;2.30;99.90;;;;;;5114855;28;20383;-84
2021/01/13 08:23:37;;;;;;;11.43;2.20;;;2.40;99.90;;;;;;5115298;28;20482;-84
2021/01/13 08:26:05;;;;;;;13.55;3.30;;;2.40;99.90;;;;;;5115160;28;20479;-85
2021/01/13 08:28:43;;;;;;;15.68;2.72;;;2.40;99.90;;;;;;5110500;28;20039;-84
2021/01/13 08:31:09;;;;;;;18.85;2.00;;;2.40;99.90;;;;;;5094594;28;20422;-83
2021/01/13 08:33:39;;;;;;;9.77;2.17;;;2.40;99.90;;;;;;5095752;28;20388;-83
2021/01/13 08:36:08;;;;;;;11.10;2.75;;;2.50;99.90;;;;;;5095914;28;20083;-83
2021/01/13 08:38:34;;;;;;;12.83;1.73;;;2.50;99.90;;;;;;5094531;28;20464;-83
2021/01/13 08:41:22;;;;;;;10.65;2.13;;;2.50;99.90;;;;;;5095642;28;20531;-83
2021/01/13 08:44:06;;;;;;;18.58;3.22;;;2.50;99.90;;;;;;5095763;28;20027;-83
2021/01/13 08:46:38;;;;;;;11.02;2.45;;;2.50;99.90;;;;;;5090988;28;20368;-83
2021/01/13 08:49:06;;;;;;;15.85;2.75;;;2.60;99.90;;;;;;5080903;28;20025;-82
2021/01/13 08:51:31;;;;;;;11.15;2.42;;;2.60;99.90;;;;;;5081403;28;20391;-82
2021/01/13 08:54:21;;;;;;;15.50;2.72;;;2.60;99.90;;;;;;5081499;28;20495;-82
2021/01/13 08:57:00;;;;;;;14.57;3.17;;;2.60;99.90;;;;;;5093978;28;20131;-82
2021/01/13 08:59:43;;;;;;;13.35;2.58;;;2.60;99.90;;;;;;5094038;28;20036;-83
2021/01/13 09:02:23;;;;;;;11.45;2.15;;;2.60;99.90;;;;;;5094131;28;20062;-83
2021/01/13 09:04:53;;;;;;;12.13;2.88;;;2.70;99.90;;;;;;5093162;28;20017;-83
2021/01/13 09:07:23;;;;;;;9.88;2.30;;;2.70;99.90;;;;;;5073672;28;20024;-83
2021/01/13 09:09:55;;;;;;;;;;;2.70;99.90;;;;;;5074154;28;20021;-83
2021/01/13 09:12:38;;;;;;;13.88;3.03;;;2.70;99.90;;;;;;5077183;28;19920;-82
2021/01/13 09:15:07;;;;;;;10.60;2.65;;;2.80;99.90;;;;;;5093938;28;20061;-83
2021/01/13 09:17:52;;;;;;;11.68;2.55;;;2.80;99.90;;;;;;5095453;28;20020;-83
2021/01/13 09:20:29;;;;;;;11.18;3.33;;;2.80;99.90;;;;;;5093860;28;20039;-84
2021/01/13 09:23:00;;;;;;;13.00;3.17;;;2.90;99.90;;;;;;5085540;28;20074;-82
2021/01/13 09:25:29;;;;;;;14.25;3.13;;;2.90;99.90;;;;;;5081104;28;20498;-82
2021/01/13 09:28:02;;;;;;;13.32;2.88;;;3.00;99.90;;;;;;5083212;28;20112;-83
2021/01/13 09:30:38;;;;;;;13.43;3.03;;;3.00;99.90;;;;;;5093061;28;20069;-83
2021/01/13 09:33:10;;;;;;;17.17;3.90;;;3.10;99.90;;;;;;5093038;28;20495;-83
2021/01/13 09:35:59;;;;;;;11.10;3.50;;;3.10;99.90;;;;;;5094197;28;20433;-82
2021/01/13 09:38:30;;;;;;;11.10;4.43;;;3.20;99.90;;;;;;5089547;28;20060;-82
2021/01/13 09:41:05;;;;;;;12.18;3.33;;;3.30;99.90;;;;;;5085169;28;20029;-83
2021/01/13 09:43:34;;;;;;;13.10;3.42;;;3.30;99.90;;;;;;5072561;28;20471;-83
2021/01/13 09:46:06;;;;;;;16.33;3.97;;;3.30;99.90;;;;;;5072911;28;20020;-83
2021/01/13 09:48:33;;;;;;;12.65;3.60;;;3.40;99.90;;;;;;5073989;28;20455;-83
2021/01/13 09:51:04;;;;;;;21.02;4.65;;;3.40;99.90;;;;;;5072800;28;20021;-83
2021/01/13 09:53:36;;;;;;;14.02;3.65;;;3.40;99.90;;;;;;5072647;28;20028;-83
2021/01/13 09:56:07;;;;;;;21.20;3.92;;;3.50;99.90;;;;;;5075798;28;20048;-83
2021/01/13 09:58:41;;;;;;;15.20;3.42;;;3.50;99.90;;;;;;5075579;28;20388;-82
2021/01/13 10:01:19;;;;;;;25.85;4.72;;;3.60;99.90;;;;;;5075966;28;20111;-83
2021/01/13 10:03:47;;;;;;;10.93;3.35;;;3.60;99.90;;;;;;5075916;28;20051;-82
2021/01/13 10:06:26;;;;;;;11.10;3.63;;;3.60;99.90;;;;;;5072139;28;20398;-82
2021/01/13 10:08:52;;;;;;;14.80;4.13;;;3.70;99.90;;;;;;5072422;28;20032;-83
2021/01/13 10:11:19;;;;;;;14.93;3.53;;;3.60;99.90;;;;;;5072205;28;20028;-83
2021/01/13 10:13:55;;;;;;;15.57;3.58;;;3.70;99.90;;;;;;5072161;28;20024;-83
2021/01/13 10:16:20;;;;;;;22.85;6.15;;;3.70;99.90;;;;;;5072381;28;20028;-82
2021/01/13 10:18:52;;;;;;;16.17;4.53;;;3.70;99.90;;;;;;5072011;28;20070;-83
2021/01/13 10:21:18;;;;;;;8.13;3.67;;;3.70;99.90;;;;;;5073415;28;20110;-83
2021/01/13 10:23:45;;;;;;;13.18;4.22;;;3.80;99.90;;;;;;5073333;28;20093;-83
2021/01/13 10:26:11;;;;;;;15.23;4.05;;;3.80;99.90;;;;;;5072123;28;20032;-83
2021/01/13 10:28:38;;;;;;;10.93;4.00;;;3.90;99.90;;;;;;5072091;28;20021;-83
2021/01/13 10:31:06;;;;;;;10.82;3.75;;;4.00;99.90;;;;;;5071835;28;20024;-83
2021/01/13 10:33:50;;;;;;;17.52;5.13;;;4.10;99.90;;;;;;5071841;28;20047;-83
2021/01/13 10:36:28;;;;;;;16.15;4.10;;;4.10;99.90;;;;;;5071889;28;20052;-83
2021/01/13 10:38:55;;;;;;;13.38;3.28;;;4.10;99.90;;;;;;5073128;28;20028;-82
2021/01/13 10:41:47;;;;;;;11.02;3.00;;;4.20;99.90;;;;;;5073067;28;20483;-82
2021/01/13 10:44:14;;;;;;;17.30;5.15;;;4.40;99.90;;;;;;5072431;28;20491;-83
2021/01/13 10:46:52;;;;;;;14.88;3.75;;;4.50;99.90;;;;;;5071845;28;20035;-83
2021/01/13 10:49:27;;;;;;;16.92;4.15;;;4.50;99.90;;;;;;5071279;28;20109;-83
2021/01/13 10:52:05;;;;;;;18.95;4.03;;;4.60;99.90;;;;;;5071528;28;20070;-83
2021/01/13 10:54:33;;;;;;;13.15;4.22;;;4.70;99.90;;;;;;5070848;28;20024;-83
2021/01/13 10:57:05;;;;;;;9.30;3.30;;;4.80;99.90;;;;;;5074129;28;20029;-83
2021/01/13 10:59:32;;;;;;;17.85;4.38;;;5.00;99.90;;;;;;5071101;28;20027;-83
2021/01/13 11:02:19;;;;;;;13.93;3.97;;;5.00;99.90;;;;;;5071837;28;20020;-84
2021/01/13 11:04:46;;;;;;;13.10;3.65;;;5.00;99.90;;;;;;5076410;28;20111;-83
2021/01/13 11:07:20;;;;;;;15.93;3.47;;;5.40;99.90;;;;;;5091877;28;20110;-83
2021/01/13 11:09:52;;;;;;;12.00;3.90;;;5.40;99.90;;;;;;5091758;28;20056;-83
2021/01/13 11:12:23;;;;;;;15.25;4.05;;;5.30;99.90;;;;;;5091549;28;20101;-83
2021/01/13 11:14:50;;;;;;;16.10;3.85;;;5.40;99.90;;;;;;5091396;28;20032;-83
2021/01/13 11:17:23;;;;;;;12.88;4.38;;;6.00;99.90;;;;;;5091699;28;20039;-83
2021/01/13 11:19:56;;;;;;;16.70;4.05;;;6.00;99.70;;;;;;5091474;28;20043;-83
2021/01/13 11:22:44;;;;;;;16.27;4.60;;;6.10;99.10;;;;;;5091663;28;20020;-83
2021/01/13 11:25:35;;;;;;;13.48;4.25;;;5.90;98.90;;;;;;5091186;28;20020;-84
2021/01/13 11:28:04;;;;;;;13.60;4.10;;;5.70;99.30;;;;;;5078647;28;20051;-83
2021/01/13 11:30:31;;;;;;;14.82;5.38;;;5.70;99.70;;;;;;5091340;28;20046;-83
2021/01/13 11:32:59;;;;;;;18.33;4.97;;;5.60;99.60;;;;;;5092946;28;20099;-83
2021/01/13 11:35:53;;;;;;;16.60;4.53;;;5.60;99.50;;;;;;5092665;28;20024;-83
2021/01/13 11:38:36;;;;;;;13.00;4.70;;;5.90;99.80;;;;;;5068841;28;20040;-83
2021/01/13 11:41:43;;;;;;;17.80;5.05;;;6.00;99.50;;;;;;5077639;28;20042;-83
2021/01/13 11:44:47;;;;;;;14.98;4.10;;;5.80;98.80;;;;;;5081832;28;20487;-83
2021/01/13 11:47:20;;;;;;;20.17;5.90;;;5.90;98.80;;;;;;5079996;28;20051;-83
2021/01/13 11:49:52;;;;;;;13.38;4.50;;;5.90;98.70;;;;;;5076320;28;20021;-83
2021/01/13 11:52:18;;;;;;;19.38;4.30;;;6.00;98.90;;;;;;5083438;28;20038;-83
2021/01/13 11:54:49;;;;;;;15.18;4.35;;;6.00;98.70;;;;;;5086819;28;20544;-83
2021/01/13 11:57:22;;;;;;;18.08;4.15;;;6.10;98.10;;;;;;5087081;28;20117;-82
2021/01/13 11:59:49;;;;;;;17.98;4.68;;;6.20;98.40;;;;;;5090863;28;20547;-83
2021/01/13 12:02:30;;;;;;;15.45;4.38;;;6.50;98.10;;;;;;5083436;28;20341;-83
2021/01/13 12:04:56;;;;;;;11.30;3.50;;;6.70;97.10;;;;;;5083956;28;20054;-83
2021/01/13 12:07:21;;;;;;;15.02;4.45;;;7.00;96.90;;;;;;5089769;28;20477;-83
2021/01/13 12:10:11;;;;;;;12.18;3.70;;;7.20;96.00;;;;;;5085087;28;20131;-83
2021/01/13 12:12:37;;;;;;;;;;;7.10;95.90;;;;;;5083880;28;20024;-83
2021/01/13 12:15:06;;;;;;;9.80;3.05;;;7.00;95.90;;;;;;5087510;28;19954;-83
2021/01/13 12:17:33;;;;;;;16.98;4.43;;;6.80;96.50;;;;;;5082836;28;20032;-83
2021/01/13 12:19:58;;;;;;;19.30;4.80;;;6.90;96.90;;;;;;5081484;28;20112;-83
2021/01/13 12:22:34;;;;;;;12.80;4.38;;;7.10;96.60;;;;;;5082035;28;20416;-83
2021/01/13 12:25:00;;;;;;;17.67;4.65;;;7.10;96.60;;;;;;5081639;28;20380;-83
2021/01/13 12:27:27;;;;;;;16.27;4.35;;;7.00;96.80;;;;;;5088626;28;20020;-83
2021/01/13 12:30:06;;;;;;;10.38;3.72;;;7.00;96.80;;;;;;5085740;28;20020;-83
2021/01/13 12:32:33;;;;;;;11.57;3.25;;;7.30;95.90;;;;;;5081488;28;20032;-83
2021/01/13 12:34:59;;;;;;;17.42;3.60;;;7.30;95.60;;;;;;5087503;28;20028;-83
2021/01/13 12:37:25;;;;;;;15.93;3.80;;;7.20;95.30;;;;;;5090503;28;20140;-83
2021/01/13 12:40:00;;;;;;;15.30;3.72;;;7.10;95.60;;;;;;5084616;28;20491;-83
2021/01/13 12:42:30;;;;;;;16.83;3.35;;;7.10;96.10;;;;;;5084042;28;20020;-83
2021/01/13 12:44:57;;;;;;;12.70;3.83;;;7.00;96.30;;;;;;5082581;28;20077;-83
2021/01/13 12:47:27;;;;;;;10.30;3.03;;;6.80;95.90;;;;;;5091087;28;20020;-83
2021/01/13 12:49:54;;;;;;;14.20;3.63;;;6.80;96.10;;;;;;5094127;28;20051;-83
2021/01/13 12:52:19;;;;;;;10.20;3.08;;;6.70;95.80;;;;;;5095592;28;20024;-83
2021/01/13 12:54:45;;;;;;;16.90;2.70;;;6.70;95.70;;;;;;5095036;28;20483;-83
2021/01/13 12:57:11;;;;;;;11.48;2.47;;;6.70;95.70;;;;;;5094154;28;20517;-83
2021/01/13 12:59:37;;;;;;;12.00;2.60;;;6.70;95.60;;;;;;5093941;28;20127;-83
2021/01/13 13:02:03;;;;;;;6.22;1.90;;;6.70;95.00;;;;;;5095093;28;20472;-83
2021/01/13 13:04:28;;;;;;;7.22;1.27;;;6.60;93.20;;;;;;5094110;28;20017;-83
2021/01/13 13:06:54;;;;;;;6.78;1.65;;;6.70;92.40;;;;;;5074754;28;20024;-83
2021/01/13 13:09:19;;;;;;;4.13;1.15;;;6.80;91.50;;;;;;5073631;28;20074;-83
2021/01/13 13:11:45;;;;;;;7.07;1.35;;;6.70;91.60;;;;;;5073467;28;20604;-83
2021/01/13 13:14:12;;;;;;;9.68;2.30;;;6.60;91.80;;;;;;5074789;28;20063;-83
2021/01/13 13:16:38;;;;;;;8.52;1.45;;;6.60;91.00;;;;;;5073370;28;20031;-83